sensor_id;sensor_type;location;lat;lon;timestamp;P1;durP1;ratioP1;P2;durP2;ratioP2
23113;SDS011;11726;50.122;8.832;2024-03-22T00:01:15;8.50;;;4.18;;
23113;SDS011;11726;50.122;8.832;2024-03-22T00:03:41;7.53;;;4.40;;
23113;SDS011;11726;50.122;8.832;2024-03-22T00:06:07;6.85;;;4.25;;
23113;SDS011;11726;50.122;8.832;2024-03-22T00:08:33;7.72;;;4.53;;
23113;SDS011;11726;50.122;8.832;2024-03-22T00:10:58;11.15;;;5.07;;
23113;SDS011;11726;50.122;8.832;2024-03-22T00:13:24;10.85;;;4.97;;
23113;SDS011;11726;50.122;8.832;2024-03-22T00:15:50;12.07;;;5.18;;
23113;SDS011;11726;50.122;8.832;2024-03-22T00:18:16;8.35;;;4.68;;
23113;SDS011;11726;50.122;8.832;2024-03-22T00:20:41;10.77;;;5.35;;
23113;SDS011;11726;50.122;8.832;2024-03-22T00:23:07;8.95;;;5.05;;
23113;SDS011;11726;50.122;8.832;2024-03-22T00:25:33;9.82;;;5.15;;
23113;SDS011;11726;50.122;8.832;2024-03-22T00:27:58;10.40;;;5.05;;
23113;SDS011;11726;50.122;8.832;2024-03-22T00:30:24;10.38;;;4.72;;
23113;SDS011;11726;50.122;8.832;2024-03-22T00:32:50;11.30;;;5.60;;
23113;SDS011;11726;50.122;8.832;2024-03-22T00:35:16;11.07;;;5.22;;
23113;SDS011;11726;50.122;8.832;2024-03-22T00:37:41;10.98;;;4.95;;
23113;SDS011;11726;50.122;8.832;2024-03-22T00:40:07;10.65;;;5.20;;
23113;SDS011;11726;50.122;8.832;2024-03-22T00:42:33;9.70;;;4.60;;
23113;SDS011;11726;50.122;8.832;2024-03-22T00:44:59;8.98;;;4.80;;
23113;SDS011;11726;50.122;8.832;2024-03-22T00:47:24;8.82;;;4.70;;
23113;SDS011;11726;50.122;8.832;2024-03-22T00:49:50;11.10;;;5.40;;
23113;SDS011;11726;50.122;8.832;2024-03-22T00:52:16;8.50;;;4.68;;
23113;SDS011;11726;50.122;8.832;2024-03-22T00:54:41;9.57;;;4.90;;
23113;SDS011;11726;50.122;8.832;2024-03-22T00:57:08;10.25;;;5.03;;
23113;SDS011;11726;50.122;8.832;2024-03-22T00:59:34;8.85;;;5.13;;
23113;SDS011;11726;50.122;8.832;2024-03-22T01:02:00;9.70;;;4.72;;
23113;SDS011;11726;50.122;8.832;2024-03-22T01:04:25;10.93;;;4.70;;
23113;SDS011;11726;50.122;8.832;2024-03-22T01:06:51;11.05;;;5.00;;
23113;SDS011;11726;50.122;8.832;2024-03-22T01:09:17;11.00;;;5.40;;
23113;SDS011;11726;50.122;8.832;2024-03-22T01:11:42;9.45;;;5.03;;
23113;SDS011;11726;50.122;8.832;2024-03-22T01:14:08;10.80;;;5.15;;
23113;SDS011;11726;50.122;8.832;2024-03-22T01:16:34;12.02;;;4.68;;
23113;SDS011;11726;50.122;8.832;2024-03-22T01:18:59;10.13;;;5.05;;
23113;SDS011;11726;50.122;8.832;2024-03-22T01:21:25;9.50;;;5.15;;
23113;SDS011;11726;50.122;8.832;2024-03-22T01:23:52;11.93;;;5.20;;
23113;SDS011;11726;50.122;8.832;2024-03-22T01:26:18;12.48;;;5.50;;
23113;SDS011;11726;50.122;8.832;2024-03-22T01:28:43;10.93;;;5.22;;
23113;SDS011;11726;50.122;8.832;2024-03-22T01:31:09;11.90;;;6.00;;
23113;SDS011;11726;50.122;8.832;2024-03-22T01:33:35;12.13;;;5.70;;
23113;SDS011;11726;50.122;8.832;2024-03-22T01:36:00;12.15;;;5.53;;
23113;SDS011;11726;50.122;8.832;2024-03-22T01:38:26;12.30;;;5.40;;
23113;SDS011;11726;50.122;8.832;2024-03-22T01:40:53;13.27;;;5.90;;
23113;SDS011;11726;50.122;8.832;2024-03-22T01:43:18;13.25;;;5.50;;
23113;SDS011;11726;50.122;8.832;2024-03-22T01:45:44;13.30;;;5.93;;
23113;SDS011;11726;50.122;8.832;2024-03-22T01:48:10;9.93;;;5.38;;
23113;SDS011;11726;50.122;8.832;2024-03-22T01:50:37;10.35;;;5.05;;
23113;SDS011;11726;50.122;8.832;2024-03-22T01:53:03;10.40;;;5.20;;
23113;SDS011;11726;50.122;8.832;2024-03-22T01:55:29;13.77;;;5.68;;
23113;SDS011;11726;50.122;8.832;2024-03-22T01:57:55;11.05;;;5.95;;
23113;SDS011;11726;50.122;8.832;2024-03-22T02:00:21;11.13;;;5.88;;
23113;SDS011;11726;50.122;8.832;2024-03-22T02:02:47;11.98;;;5.57;;
23113;SDS011;11726;50.122;8.832;2024-03-22T02:05:14;14.48;;;5.90;;
23113;SDS011;11726;50.122;8.832;2024-03-22T02:07:41;8.82;;;4.40;;
23113;SDS011;11726;50.122;8.832;2024-03-22T02:10:07;11.82;;;5.85;;
23113;SDS011;11726;50.122;8.832;2024-03-22T02:12:36;11.50;;;5.13;;
23113;SDS011;11726;50.122;8.832;2024-03-22T02:15:03;13.05;;;5.47;;
23113;SDS011;11726;50.122;8.832;2024-03-22T02:17:29;8.95;;;4.07;;
23113;SDS011;11726;50.122;8.832;2024-03-22T02:19:54;10.88;;;4.60;;
23113;SDS011;11726;50.122;8.832;2024-03-22T02:22:20;12.60;;;5.35;;
23113;SDS011;11726;50.122;8.832;2024-03-22T02:24:46;11.38;;;5.28;;
23113;SDS011;11726;50.122;8.832;2024-03-22T02:27:12;10.50;;;4.97;;
23113;SDS011;11726;50.122;8.832;2024-03-22T02:29:37;8.95;;;4.15;;
23113;SDS011;11726;50.122;8.832;2024-03-22T02:32:03;10.90;;;4.60;;
23113;SDS011;11726;50.122;8.832;2024-03-22T02:34:29;9.25;;;4.82;;
23113;SDS011;11726;50.122;8.832;2024-03-22T02:36:55;10.93;;;4.65;;
23113;SDS011;11726;50.122;8.832;2024-03-22T02:39:20;15.98;;;5.28;;
23113;SDS011;11726;50.122;8.832;2024-03-22T02:41:46;11.77;;;5.40;;
23113;SDS011;11726;50.122;8.832;2024-03-22T02:44:12;11.40;;;5.63;;
23113;SDS011;11726;50.122;8.832;2024-03-22T02:46:37;11.25;;;5.30;;
23113;SDS011;11726;50.122;8.832;2024-03-22T02:49:03;11.02;;;5.55;;
23113;SDS011;11726;50.122;8.832;2024-03-22T02:51:29;10.55;;;5.28;;
23113;SDS011;11726;50.122;8.832;2024-03-22T02:53:55;11.27;;;5.53;;
23113;SDS011;11726;50.122;8.832;2024-03-22T02:56:20;14.13;;;5.80;;
23113;SDS011;11726;50.122;8.832;2024-03-22T02:58:46;10.90;;;5.45;;
23113;SDS011;11726;50.122;8.832;2024-03-22T03:01:13;11.07;;;5.05;;
23113;SDS011;11726;50.122;8.832;2024-03-22T03:03:39;11.05;;;4.85;;
23113;SDS011;11726;50.122;8.832;2024-03-22T03:06:05;9.55;;;5.25;;
23113;SDS011;11726;50.122;8.832;2024-03-22T03:08:31;12.70;;;5.95;;
23113;SDS011;11726;50.122;8.832;2024-03-22T03:10:56;10.60;;;5.40;;
23113;SDS011;11726;50.122;8.832;2024-03-22T03:13:22;10.35;;;5.45;;
23113;SDS011;11726;50.122;8.832;2024-03-22T03:15:48;11.68;;;4.97;;
23113;SDS011;11726;50.122;8.832;2024-03-22T03:18:14;12.55;;;5.38;;
23113;SDS011;11726;50.122;8.832;2024-03-22T03:20:40;11.20;;;5.95;;
23113;SDS011;11726;50.122;8.832;2024-03-22T03:23:06;11.63;;;5.30;;
23113;SDS011;11726;50.122;8.832;2024-03-22T03:25:31;12.85;;;5.75;;
23113;SDS011;11726;50.122;8.832;2024-03-22T03:27:57;13.57;;;5.32;;
23113;SDS011;11726;50.122;8.832;2024-03-22T03:30:23;11.15;;;4.97;;
23113;SDS011;11726;50.122;8.832;2024-03-22T03:32:48;13.25;;;5.20;;
23113;SDS011;11726;50.122;8.832;2024-03-22T03:35:14;11.35;;;5.10;;
23113;SDS011;11726;50.122;8.832;2024-03-22T03:37:40;12.40;;;4.75;;
23113;SDS011;11726;50.122;8.832;2024-03-22T03:40:06;11.05;;;5.07;;
23113;SDS011;11726;50.122;8.832;2024-03-22T03:42:32;12.30;;;5.10;;
23113;SDS011;11726;50.122;8.832;2024-03-22T03:44:58;12.35;;;5.55;;
23113;SDS011;11726;50.122;8.832;2024-03-22T03:47:24;11.30;;;5.18;;
23113;SDS011;11726;50.122;8.832;2024-03-22T03:49:49;9.70;;;4.70;;
23113;SDS011;11726;50.122;8.832;2024-03-22T03:52:15;9.77;;;5.43;;
23113;SDS011;11726;50.122;8.832;2024-03-22T03:54:41;12.20;;;5.65;;
23113;SDS011;11726;50.122;8.832;2024-03-22T03:57:06;15.13;;;6.90;;
23113;SDS011;11726;50.122;8.832;2024-03-22T03:59:32;10.43;;;5.20;;
23113;SDS011;11726;50.122;8.832;2024-03-22T04:01:58;13.40;;;5.63;;
23113;SDS011;11726;50.122;8.832;2024-03-22T04:04:24;13.60;;;5.97;;
23113;SDS011;11726;50.122;8.832;2024-03-22T04:06:49;12.73;;;5.18;;
23113;SDS011;11726;50.122;8.832;2024-03-22T04:09:15;13.02;;;5.45;;
23113;SDS011;11726;50.122;8.832;2024-03-22T04:11:41;14.02;;;6.50;;
23113;SDS011;11726;50.122;8.832;2024-03-22T04:14:07;14.68;;;5.70;;
23113;SDS011;11726;50.122;8.832;2024-03-22T04:16:32;13.85;;;6.97;;
23113;SDS011;11726;50.122;8.832;2024-03-22T04:18:58;16.30;;;6.40;;
23113;SDS011;11726;50.122;8.832;2024-03-22T04:21:24;13.63;;;6.18;;
23113;SDS011;11726;50.122;8.832;2024-03-22T04:23:49;12.82;;;6.20;;
23113;SDS011;11726;50.122;8.832;2024-03-22T04:26:15;14.65;;;5.95;;
23113;SDS011;11726;50.122;8.832;2024-03-22T04:28:41;17.70;;;6.95;;
23113;SDS011;11726;50.122;8.832;2024-03-22T04:31:07;14.57;;;6.75;;
23113;SDS011;11726;50.122;8.832;2024-03-22T04:33:34;13.48;;;6.28;;
23113;SDS011;11726;50.122;8.832;2024-03-22T04:36:00;13.13;;;6.55;;
23113;SDS011;11726;50.122;8.832;2024-03-22T04:38:28;12.45;;;6.18;;
23113;SDS011;11726;50.122;8.832;2024-03-22T04:40:54;16.60;;;6.85;;
23113;SDS011;11726;50.122;8.832;2024-03-22T04:43:22;15.48;;;7.28;;
23113;SDS011;11726;50.122;8.832;2024-03-22T04:45:49;24.83;;;9.73;;
23113;SDS011;11726;50.122;8.832;2024-03-22T04:48:19;21.73;;;9.90;;
23113;SDS011;11726;50.122;8.832;2024-03-22T04:50:46;33.65;;;12.95;;
23113;SDS011;11726;50.122;8.832;2024-03-22T04:53:15;27.17;;;11.80;;
23113;SDS011;11726;50.122;8.832;2024-03-22T04:58:21;23.20;;;9.15;;
23113;SDS011;11726;50.122;8.832;2024-03-22T05:00:47;24.27;;;9.48;;
23113;SDS011;11726;50.122;8.832;2024-03-22T05:03:13;15.60;;;7.32;;
23113;SDS011;11726;50.122;8.832;2024-03-22T05:05:40;16.42;;;6.38;;
23113;SDS011;11726;50.122;8.832;2024-03-22T05:08:06;13.45;;;6.68;;
23113;SDS011;11726;50.122;8.832;2024-03-22T05:10:33;15.90;;;6.75;;
23113;SDS011;11726;50.122;8.832;2024-03-22T05:12:59;17.00;;;6.95;;
23113;SDS011;11726;50.122;8.832;2024-03-22T05:15:25;14.88;;;6.53;;
23113;SDS011;11726;50.122;8.832;2024-03-22T05:17:52;15.02;;;7.00;;
23113;SDS011;11726;50.122;8.832;2024-03-22T05:20:18;14.15;;;6.63;;
23113;SDS011;11726;50.122;8.832;2024-03-22T05:22:44;17.52;;;6.88;;
23113;SDS011;11726;50.122;8.832;2024-03-22T05:25:10;16.60;;;7.05;;
23113;SDS011;11726;50.122;8.832;2024-03-22T05:27:37;20.27;;;7.15;;
23113;SDS011;11726;50.122;8.832;2024-03-22T05:30:03;15.93;;;6.65;;
23113;SDS011;11726;50.122;8.832;2024-03-22T05:32:29;16.63;;;6.22;;
23113;SDS011;11726;50.122;8.832;2024-03-22T05:34:55;12.10;;;6.72;;
23113;SDS011;11726;50.122;8.832;2024-03-22T05:37:21;18.05;;;6.85;;
23113;SDS011;11726;50.122;8.832;2024-03-22T05:39:47;14.65;;;6.90;;
23113;SDS011;11726;50.122;8.832;2024-03-22T05:42:13;13.13;;;6.50;;
23113;SDS011;11726;50.122;8.832;2024-03-22T05:44:39;15.88;;;7.15;;
23113;SDS011;11726;50.122;8.832;2024-03-22T05:47:05;13.82;;;6.30;;
23113;SDS011;11726;50.122;8.832;2024-03-22T05:49:31;15.25;;;6.20;;
23113;SDS011;11726;50.122;8.832;2024-03-22T05:51:57;21.33;;;7.18;;
23113;SDS011;11726;50.122;8.832;2024-03-22T05:54:22;15.57;;;6.43;;
23113;SDS011;11726;50.122;8.832;2024-03-22T05:56:48;16.42;;;6.95;;
23113;SDS011;11726;50.122;8.832;2024-03-22T05:59:14;16.27;;;7.45;;
23113;SDS011;11726;50.122;8.832;2024-03-22T06:01:40;16.63;;;7.55;;
23113;SDS011;11726;50.122;8.832;2024-03-22T06:04:05;14.63;;;7.03;;
23113;SDS011;11726;50.122;8.832;2024-03-22T06:06:32;18.05;;;7.70;;
23113;SDS011;11726;50.122;8.832;2024-03-22T06:08:59;16.92;;;7.03;;
23113;SDS011;11726;50.122;8.832;2024-03-22T06:11:28;14.07;;;6.70;;
23113;SDS011;11726;50.122;8.832;2024-03-22T06:13:54;14.45;;;7.05;;
23113;SDS011;11726;50.122;8.832;2024-03-22T06:16:19;16.95;;;7.03;;
23113;SDS011;11726;50.122;8.832;2024-03-22T06:18:45;14.73;;;6.95;;
23113;SDS011;11726;50.122;8.832;2024-03-22T06:21:11;16.38;;;7.20;;
23113;SDS011;11726;50.122;8.832;2024-03-22T06:23:39;13.68;;;6.35;;
23113;SDS011;11726;50.122;8.832;2024-03-22T06:26:06;14.45;;;6.95;;
23113;SDS011;11726;50.122;8.832;2024-03-22T06:28:32;16.08;;;6.65;;
23113;SDS011;11726;50.122;8.832;2024-03-22T06:30:58;14.95;;;6.90;;
23113;SDS011;11726;50.122;8.832;2024-03-22T06:33:24;15.32;;;6.38;;
23113;SDS011;11726;50.122;8.832;2024-03-22T06:35:49;17.05;;;6.68;;
23113;SDS011;11726;50.122;8.832;2024-03-22T06:38:15;17.48;;;7.43;;
23113;SDS011;11726;50.122;8.832;2024-03-22T06:40:41;19.80;;;7.63;;
23113;SDS011;11726;50.122;8.832;2024-03-22T06:43:07;17.73;;;7.00;;
23113;SDS011;11726;50.122;8.832;2024-03-22T06:45:34;16.73;;;6.95;;
23113;SDS011;11726;50.122;8.832;2024-03-22T06:47:59;14.15;;;6.80;;
23113;SDS011;11726;50.122;8.832;2024-03-22T06:50:25;15.68;;;7.45;;
23113;SDS011;11726;50.122;8.832;2024-03-22T06:52:54;18.58;;;6.75;;
23113;SDS011;11726;50.122;8.832;2024-03-22T06:55:20;11.80;;;6.15;;
23113;SDS011;11726;50.122;8.832;2024-03-22T06:57:47;19.67;;;6.53;;
23113;SDS011;11726;50.122;8.832;2024-03-22T07:00:13;17.95;;;7.25;;
23113;SDS011;11726;50.122;8.832;2024-03-22T07:02:40;15.52;;;7.60;;
23113;SDS011;11726;50.122;8.832;2024-03-22T07:05:06;13.13;;;6.82;;
23113;SDS011;11726;50.122;8.832;2024-03-22T07:07:32;15.90;;;6.88;;
23113;SDS011;11726;50.122;8.832;2024-03-22T07:09:59;15.10;;;6.45;;
23113;SDS011;11726;50.122;8.832;2024-03-22T07:12:24;16.83;;;6.43;;
23113;SDS011;11726;50.122;8.832;2024-03-22T07:14:50;15.25;;;6.43;;
23113;SDS011;11726;50.122;8.832;2024-03-22T07:17:16;17.25;;;6.25;;
23113;SDS011;11726;50.122;8.832;2024-03-22T07:19:42;12.43;;;6.32;;
23113;SDS011;11726;50.122;8.832;2024-03-22T07:22:08;18.20;;;6.60;;
23113;SDS011;11726;50.122;8.832;2024-03-22T07:24:34;15.38;;;6.60;;
23113;SDS011;11726;50.122;8.832;2024-03-22T07:26:59;17.65;;;7.35;;
23113;SDS011;11726;50.122;8.832;2024-03-22T07:29:25;12.65;;;6.63;;
23113;SDS011;11726;50.122;8.832;2024-03-22T07:31:51;15.45;;;7.00;;
23113;SDS011;11726;50.122;8.832;2024-03-22T07:34:17;13.77;;;6.18;;
23113;SDS011;11726;50.122;8.832;2024-03-22T07:36:43;14.25;;;6.55;;
23113;SDS011;11726;50.122;8.832;2024-03-22T07:39:09;14.43;;;6.47;;
23113;SDS011;11726;50.122;8.832;2024-03-22T07:41:35;13.38;;;6.88;;
23113;SDS011;11726;50.122;8.832;2024-03-22T07:44:01;17.45;;;7.55;;
23113;SDS011;11726;50.122;8.832;2024-03-22T07:46:28;11.88;;;6.10;;
23113;SDS011;11726;50.122;8.832;2024-03-22T07:48:53;15.50;;;6.47;;
23113;SDS011;11726;50.122;8.832;2024-03-22T07:51:20;13.18;;;6.38;;
23113;SDS011;11726;50.122;8.832;2024-03-22T07:53:46;17.42;;;7.40;;
23113;SDS011;11726;50.122;8.832;2024-03-22T07:56:11;14.82;;;6.20;;
23113;SDS011;11726;50.122;8.832;2024-03-22T07:58:38;15.52;;;7.22;;
23113;SDS011;11726;50.122;8.832;2024-03-22T08:01:04;17.65;;;7.18;;
23113;SDS011;11726;50.122;8.832;2024-03-22T08:03:30;15.63;;;6.75;;
23113;SDS011;11726;50.122;8.832;2024-03-22T08:05:55;18.13;;;6.95;;
23113;SDS011;11726;50.122;8.832;2024-03-22T08:08:21;15.73;;;6.78;;
23113;SDS011;11726;50.122;8.832;2024-03-22T08:10:47;15.65;;;6.80;;
23113;SDS011;11726;50.122;8.832;2024-03-22T08:13:13;12.20;;;6.60;;
23113;SDS011;11726;50.122;8.832;2024-03-22T08:15:39;21.75;;;7.70;;
23113;SDS011;11726;50.122;8.832;2024-03-22T08:18:05;22.17;;;8.02;;
23113;SDS011;11726;50.122;8.832;2024-03-22T08:20:31;15.32;;;6.88;;
23113;SDS011;11726;50.122;8.832;2024-03-22T08:22:59;17.25;;;6.88;;
23113;SDS011;11726;50.122;8.832;2024-03-22T08:25:24;15.00;;;7.25;;
23113;SDS011;11726;50.122;8.832;2024-03-22T08:27:50;12.55;;;6.13;;
23113;SDS011;11726;50.122;8.832;2024-03-22T08:30:20;15.25;;;6.82;;
23113;SDS011;11726;50.122;8.832;2024-03-22T08:32:46;14.30;;;6.10;;
23113;SDS011;11726;50.122;8.832;2024-03-22T08:35:13;15.10;;;6.50;;
23113;SDS011;11726;50.122;8.832;2024-03-22T08:37:39;15.98;;;7.25;;
23113;SDS011;11726;50.122;8.832;2024-03-22T08:40:05;14.02;;;6.40;;
23113;SDS011;11726;50.122;8.832;2024-03-22T08:42:32;14.63;;;6.80;;
23113;SDS011;11726;50.122;8.832;2024-03-22T08:44:57;14.50;;;6.50;;
23113;SDS011;11726;50.122;8.832;2024-03-22T08:47:23;11.93;;;5.97;;
23113;SDS011;11726;50.122;8.832;2024-03-22T08:49:49;15.85;;;5.78;;
23113;SDS011;11726;50.122;8.832;2024-03-22T08:52:15;14.48;;;6.50;;
23113;SDS011;11726;50.122;8.832;2024-03-22T08:54:40;14.75;;;6.35;;
23113;SDS011;11726;50.122;8.832;2024-03-22T08:57:06;11.55;;;5.93;;
23113;SDS011;11726;50.122;8.832;2024-03-22T08:59:32;14.25;;;6.25;;
23113;SDS011;11726;50.122;8.832;2024-03-22T09:01:58;12.55;;;5.47;;
23113;SDS011;11726;50.122;8.832;2024-03-22T09:04:24;12.73;;;5.70;;
23113;SDS011;11726;50.122;8.832;2024-03-22T09:06:50;15.48;;;6.50;;
23113;SDS011;11726;50.122;8.832;2024-03-22T09:09:16;15.07;;;6.30;;
23113;SDS011;11726;50.122;8.832;2024-03-22T09:11:42;12.23;;;6.15;;
23113;SDS011;11726;50.122;8.832;2024-03-22T09:14:08;16.27;;;6.10;;
23113;SDS011;11726;50.122;8.832;2024-03-22T09:16:34;15.27;;;6.50;;
23113;SDS011;11726;50.122;8.832;2024-03-22T09:19:00;14.63;;;6.43;;
23113;SDS011;11726;50.122;8.832;2024-03-22T09:21:25;15.10;;;6.07;;
23113;SDS011;11726;50.122;8.832;2024-03-22T09:23:52;15.98;;;6.88;;
23113;SDS011;11726;50.122;8.832;2024-03-22T09:26:18;13.13;;;5.82;;
23113;SDS011;11726;50.122;8.832;2024-03-22T09:28:48;14.48;;;6.40;;
23113;SDS011;11726;50.122;8.832;2024-03-22T09:31:15;11.15;;;5.25;;
23113;SDS011;11726;50.122;8.832;2024-03-22T09:33:42;10.48;;;4.57;;
23113;SDS011;11726;50.122;8.832;2024-03-22T09:36:08;11.80;;;5.05;;
23113;SDS011;11726;50.122;8.832;2024-03-22T09:38:34;10.57;;;4.97;;
23113;SDS011;11726;50.122;8.832;2024-03-22T09:41:00;7.65;;;4.82;;
23113;SDS011;11726;50.122;8.832;2024-03-22T09:43:26;9.93;;;3.63;;
23113;SDS011;11726;50.122;8.832;2024-03-22T09:45:53;7.13;;;3.35;;
23113;SDS011;11726;50.122;8.832;2024-03-22T09:48:20;5.45;;;3.28;;
23113;SDS011;11726;50.122;8.832;2024-03-22T09:50:46;7.70;;;3.70;;
23113;SDS011;11726;50.122;8.832;2024-03-22T09:53:17;5.57;;;3.33;;
23113;SDS011;11726;50.122;8.832;2024-03-22T09:55:44;5.05;;;3.20;;
23113;SDS011;11726;50.122;8.832;2024-03-22T09:58:12;4.13;;;2.63;;
23113;SDS011;11726;50.122;8.832;2024-03-22T10:00:37;5.50;;;2.58;;
23113;SDS011;11726;50.122;8.832;2024-03-22T10:03:03;6.15;;;3.83;;
23113;SDS011;11726;50.122;8.832;2024-03-22T10:05:30;8.32;;;3.13;;
23113;SDS011;11726;50.122;8.832;2024-03-22T10:07:56;5.72;;;2.72;;
23113;SDS011;11726;50.122;8.832;2024-03-22T10:10:23;4.85;;;2.65;;
23113;SDS011;11726;50.122;8.832;2024-03-22T10:12:49;6.03;;;2.78;;
23113;SDS011;11726;50.122;8.832;2024-03-22T10:15:14;5.78;;;2.83;;
23113;SDS011;11726;50.122;8.832;2024-03-22T10:17:40;5.40;;;2.53;;
23113;SDS011;11726;50.122;8.832;2024-03-22T10:20:06;10.93;;;3.85;;
23113;SDS011;11726;50.122;8.832;2024-03-22T10:22:48;8.70;;;3.33;;
23113;SDS011;11726;50.122;8.832;2024-03-22T10:25:20;7.95;;;3.13;;
23113;SDS011;11726;50.122;8.832;2024-03-22T10:27:47;4.32;;;2.70;;
23113;SDS011;11726;50.122;8.832;2024-03-22T10:30:15;4.32;;;2.53;;
23113;SDS011;11726;50.122;8.832;2024-03-22T10:32:42;5.80;;;2.70;;
23113;SDS011;11726;50.122;8.832;2024-03-22T10:35:08;6.60;;;2.70;;
23113;SDS011;11726;50.122;8.832;2024-03-22T10:37:38;4.57;;;2.85;;
23113;SDS011;11726;50.122;8.832;2024-03-22T10:40:04;12.43;;;4.22;;
23113;SDS011;11726;50.122;8.832;2024-03-22T10:42:35;7.03;;;3.25;;
23113;SDS011;11726;50.122;8.832;2024-03-22T10:45:05;4.72;;;2.60;;
23113;SDS011;11726;50.122;8.832;2024-03-22T10:47:33;9.27;;;2.85;;
23113;SDS011;11726;50.122;8.832;2024-03-22T10:50:06;6.82;;;2.60;;
23113;SDS011;11726;50.122;8.832;2024-03-22T10:52:33;6.10;;;2.92;;
23113;SDS011;11726;50.122;8.832;2024-03-22T10:55:30;6.88;;;3.17;;
23113;SDS011;11726;50.122;8.832;2024-03-22T10:58:03;5.28;;;2.63;;
23113;SDS011;11726;50.122;8.832;2024-03-22T11:00:33;7.18;;;2.72;;
23113;SDS011;11726;50.122;8.832;2024-03-22T11:03:03;6.45;;;3.00;;
23113;SDS011;11726;50.122;8.832;2024-03-22T11:05:29;7.30;;;3.45;;
23113;SDS011;11726;50.122;8.832;2024-03-22T11:08:05;6.47;;;3.55;;
23113;SDS011;11726;50.122;8.832;2024-03-22T11:10:33;8.70;;;4.30;;
23113;SDS011;11726;50.122;8.832;2024-03-22T11:13:03;12.68;;;4.47;;
23113;SDS011;11726;50.122;8.832;2024-03-22T11:15:30;7.43;;;4.32;;
23113;SDS011;11726;50.122;8.832;2024-03-22T11:17:56;10.20;;;3.97;;
23113;SDS011;11726;50.122;8.832;2024-03-22T11:20:25;11.20;;;5.00;;
23113;SDS011;11726;50.122;8.832;2024-03-22T11:22:52;9.80;;;5.30;;
23113;SDS011;11726;50.122;8.832;2024-03-22T11:25:18;11.30;;;5.35;;
23113;SDS011;11726;50.122;8.832;2024-03-22T11:27:45;10.55;;;5.75;;
23113;SDS011;11726;50.122;8.832;2024-03-22T11:30:11;9.32;;;5.05;;
23113;SDS011;11726;50.122;8.832;2024-03-22T11:32:38;10.07;;;4.32;;
23113;SDS011;11726;50.122;8.832;2024-03-22T11:35:12;12.40;;;4.82;;
23113;SDS011;11726;50.122;8.832;2024-03-22T11:37:39;7.93;;;4.22;;
23113;SDS011;11726;50.122;8.832;2024-03-22T11:40:06;9.18;;;4.30;;
23113;SDS011;11726;50.122;8.832;2024-03-22T11:42:42;11.60;;;4.60;;
23113;SDS011;11726;50.122;8.832;2024-03-22T11:45:10;8.15;;;4.47;;
23113;SDS011;11726;50.122;8.832;2024-03-22T11:47:38;8.88;;;4.47;;
23113;SDS011;11726;50.122;8.832;2024-03-22T11:50:04;9.70;;;4.18;;
23113;SDS011;11726;50.122;8.832;2024-03-22T11:52:31;7.68;;;4.30;;
23113;SDS011;11726;50.122;8.832;2024-03-22T11:54:57;11.30;;;4.40;;
23113;SDS011;11726;50.122;8.832;2024-03-22T11:57:23;8.35;;;3.97;;
23113;SDS011;11726;50.122;8.832;2024-03-22T11:59:50;8.60;;;4.28;;
23113;SDS011;11726;50.122;8.832;2024-03-22T12:02:16;5.82;;;3.97;;
23113;SDS011;11726;50.122;8.832;2024-03-22T12:04:45;7.75;;;4.25;;
23113;SDS011;11726;50.122;8.832;2024-03-22T12:07:15;10.43;;;4.60;;
23113;SDS011;11726;50.122;8.832;2024-03-22T12:09:42;9.48;;;4.97;;
23113;SDS011;11726;50.122;8.832;2024-03-22T12:12:09;11.25;;;4.68;;
23113;SDS011;11726;50.122;8.832;2024-03-22T12:14:36;10.25;;;4.72;;
23113;SDS011;11726;50.122;8.832;2024-03-22T12:17:03;8.43;;;4.65;;
23113;SDS011;11726;50.122;8.832;2024-03-22T12:19:30;12.57;;;4.88;;
23113;SDS011;11726;50.122;8.832;2024-03-22T12:21:55;9.90;;;5.63;;
23113;SDS011;11726;50.122;8.832;2024-03-22T12:24:25;9.95;;;5.00;;
23113;SDS011;11726;50.122;8.832;2024-03-22T12:26:52;9.25;;;4.57;;
23113;SDS011;11726;50.122;8.832;2024-03-22T12:29:18;9.63;;;4.82;;
23113;SDS011;11726;50.122;8.832;2024-03-22T12:31:45;9.45;;;4.45;;
23113;SDS011;11726;50.122;8.832;2024-03-22T12:34:11;11.93;;;5.57;;
23113;SDS011;11726;50.122;8.832;2024-03-22T12:36:37;11.40;;;4.40;;
23113;SDS011;11726;50.122;8.832;2024-03-22T12:39:04;11.40;;;5.45;;
23113;SDS011;11726;50.122;8.832;2024-03-22T12:41:30;9.95;;;4.45;;
23113;SDS011;11726;50.122;8.832;2024-03-22T12:43:57;9.25;;;4.70;;
23113;SDS011;11726;50.122;8.832;2024-03-22T12:46:22;11.55;;;5.63;;
23113;SDS011;11726;50.122;8.832;2024-03-22T12:48:49;8.38;;;5.05;;
23113;SDS011;11726;50.122;8.832;2024-03-22T12:51:15;17.17;;;5.22;;
23113;SDS011;11726;50.122;8.832;2024-03-22T12:53:41;9.18;;;4.32;;
23113;SDS011;11726;50.122;8.832;2024-03-22T12:56:07;8.95;;;3.92;;
23113;SDS011;11726;50.122;8.832;2024-03-22T12:58:33;6.90;;;4.25;;
23113;SDS011;11726;50.122;8.832;2024-03-22T13:00:59;10.95;;;5.22;;
23113;SDS011;11726;50.122;8.832;2024-03-22T13:03:26;7.85;;;4.40;;
23113;SDS011;11726;50.122;8.832;2024-03-22T13:05:52;8.18;;;4.82;;
23113;SDS011;11726;50.122;8.832;2024-03-22T13:08:19;9.65;;;4.80;;
23113;SDS011;11726;50.122;8.832;2024-03-22T13:10:45;8.13;;;4.57;;
23113;SDS011;11726;50.122;8.832;2024-03-22T13:13:12;8.02;;;4.40;;
23113;SDS011;11726;50.122;8.832;2024-03-22T13:15:40;9.48;;;5.03;;
23113;SDS011;11726;50.122;8.832;2024-03-22T13:18:07;8.90;;;4.60;;
23113;SDS011;11726;50.122;8.832;2024-03-22T13:20:37;7.05;;;4.40;;
23113;SDS011;11726;50.122;8.832;2024-03-22T13:23:04;9.38;;;4.28;;
23113;SDS011;11726;50.122;8.832;2024-03-22T13:25:30;7.72;;;4.13;;
23113;SDS011;11726;50.122;8.832;2024-03-22T13:27:56;11.43;;;4.25;;
23113;SDS011;11726;50.122;8.832;2024-03-22T13:30:22;9.02;;;3.95;;
23113;SDS011;11726;50.122;8.832;2024-03-22T13:32:48;8.80;;;4.80;;
23113;SDS011;11726;50.122;8.832;2024-03-22T13:35:14;7.50;;;3.22;;
23113;SDS011;11726;50.122;8.832;2024-03-22T13:37:40;8.23;;;5.00;;
23113;SDS011;11726;50.122;8.832;2024-03-22T13:40:06;11.57;;;5.28;;
23113;SDS011;11726;50.122;8.832;2024-03-22T13:42:33;9.55;;;4.50;;
23113;SDS011;11726;50.122;8.832;2024-03-22T13:44:58;8.63;;;5.13;;
23113;SDS011;11726;50.122;8.832;2024-03-22T13:47:25;10.15;;;4.80;;
23113;SDS011;11726;50.122;8.832;2024-03-22T13:49:53;6.97;;;3.97;;
23113;SDS011;11726;50.122;8.832;2024-03-22T13:52:19;7.40;;;4.40;;
23113;SDS011;11726;50.122;8.832;2024-03-22T13:54:48;8.70;;;4.47;;
23113;SDS011;11726;50.122;8.832;2024-03-22T13:57:15;6.75;;;4.13;;
23113;SDS011;11726;50.122;8.832;2024-03-22T13:59:41;10.95;;;4.72;;
23113;SDS011;11726;50.122;8.832;2024-03-22T14:02:06;9.80;;;5.05;;
23113;SDS011;11726;50.122;8.832;2024-03-22T14:04:35;11.95;;;4.38;;
23113;SDS011;11726;50.122;8.832;2024-03-22T14:07:01;7.82;;;4.35;;
23113;SDS011;11726;50.122;8.832;2024-03-22T14:09:33;6.95;;;4.22;;
23113;SDS011;11726;50.122;8.832;2024-03-22T14:11:59;9.60;;;4.55;;
23113;SDS011;11726;50.122;8.832;2024-03-22T14:14:25;7.70;;;4.13;;
23113;SDS011;11726;50.122;8.832;2024-03-22T14:16:51;9.73;;;4.72;;
23113;SDS011;11726;50.122;8.832;2024-03-22T14:19:17;6.93;;;4.30;;
23113;SDS011;11726;50.122;8.832;2024-03-22T14:21:44;7.85;;;4.60;;
23113;SDS011;11726;50.122;8.832;2024-03-22T14:24:11;9.63;;;5.03;;
23113;SDS011;11726;50.122;8.832;2024-03-22T14:26:37;9.27;;;4.30;;
23113;SDS011;11726;50.122;8.832;2024-03-22T14:29:10;13.00;;;4.70;;
23113;SDS011;11726;50.122;8.832;2024-03-22T14:31:37;12.68;;;4.40;;
23113;SDS011;11726;50.122;8.832;2024-03-22T14:34:03;8.20;;;4.38;;
23113;SDS011;11726;50.122;8.832;2024-03-22T14:36:31;10.50;;;5.40;;